Liberty Square, Pennsylvania
Current Conditions -  °F | °C
As of 3:53 PM on Thursday 27 Nov 2014 (Local Time) from KLNS Reporting Station
Overcast Overcast  
Wind Chill: 28°   Ceiling: 6500
Heat Index: 36°   Visibility: 10mi
Dew Point: 26°   Wind: 10mph
Humidity: 67%   Direction: 320°NW
Pressure: 30.05"   Gusts: NA
Location:  39.8151°N, 76.2497°W
Report Text: KLNS 272053Z 32009KT 10SM OVC065 02/M03 A3005 RMK AO2 SLP179 T00221033 53010
Loading
Personal Weather Stations






























Interactive Weather Map New forecast layout! Learn more

10-Day Weather Forecast

Advertisements
Track Severe Weather on mobile